createdAt,value
2018-03-02T00:04:01.759Z,9.60
2018-03-02T00:06:29.110Z,9.37
2018-03-02T00:08:56.595Z,9.77
2018-03-02T00:11:23.951Z,9.40
2018-03-02T00:13:51.372Z,9.77
2018-03-02T00:16:18.723Z,9.33
2018-03-02T00:18:46.188Z,9.57
2018-03-02T00:21:13.548Z,9.30
2018-03-02T00:23:40.901Z,9.43
2018-03-02T00:26:08.310Z,9.43
2018-03-02T00:28:35.670Z,9.90
2018-03-02T00:31:03.116Z,9.97
2018-03-02T00:33:30.506Z,9.60
2018-03-02T00:35:57.891Z,9.87
2018-03-02T00:38:25.342Z,10.13
2018-03-02T00:40:52.701Z,10.30
2018-03-02T00:43:20.065Z,10.50
2018-03-02T00:45:47.410Z,10.13
2018-03-02T00:48:14.801Z,10.67
2018-03-02T00:50:42.242Z,11.20
2018-03-02T00:53:09.640Z,11.57
2018-03-02T00:55:37.015Z,10.90
2018-03-02T00:58:04.404Z,11.73
2018-03-02T01:00:38.716Z,11.47
2018-03-02T01:03:06.291Z,11.90
2018-03-02T01:05:33.684Z,11.33
2018-03-02T01:08:01.051Z,11.10
2018-03-02T01:22:05.828Z,11.83
2018-03-02T01:24:33.182Z,11.87
2018-03-02T01:27:00.597Z,12.00
2018-03-02T01:29:27.956Z,12.00
2018-03-02T01:31:55.326Z,12.13
2018-03-02T01:34:22.797Z,12.30
2018-03-02T01:36:50.327Z,12.63
2018-03-02T01:39:17.759Z,12.47
2018-03-02T01:41:45.336Z,11.97
2018-03-02T01:44:12.682Z,12.73
2018-03-02T01:46:40.080Z,13.03
2018-03-02T01:49:07.431Z,13.00
2018-03-02T01:51:34.911Z,12.77
2018-03-02T01:54:02.366Z,12.77
2018-03-02T01:56:29.750Z,12.37
2018-03-02T01:58:57.103Z,12.50
2018-03-02T02:01:24.511Z,11.87
2018-03-02T02:03:51.873Z,12.97
2018-03-02T02:06:19.279Z,12.47
2018-03-02T02:08:46.661Z,12.20
2018-03-02T02:11:14.009Z,12.87
2018-03-02T02:13:41.475Z,11.87
2018-03-02T02:16:08.809Z,12.57
2018-03-02T02:18:36.196Z,12.57
2018-03-02T02:21:03.545Z,11.87
2018-03-02T02:23:30.977Z,12.67
2018-03-02T02:25:58.326Z,12.63
2018-03-02T02:28:25.701Z,13.60
2018-03-02T02:30:53.158Z,13.17
2018-03-02T02:33:20.506Z,11.53
2018-03-02T02:35:47.891Z,12.20
2018-03-02T02:38:15.237Z,12.23
2018-03-02T02:40:42.611Z,11.97
2018-03-02T02:43:09.993Z,12.67
2018-03-02T02:45:37.367Z,12.10
2018-03-02T02:48:04.813Z,11.80
2018-03-02T02:50:32.224Z,11.97
2018-03-02T02:52:59.618Z,11.33
2018-03-02T02:55:26.957Z,12.40
2018-03-02T02:57:54.407Z,11.23
2018-03-02T03:00:21.758Z,11.70
2018-03-02T03:02:49.106Z,10.83
2018-03-02T03:05:16.457Z,11.70
2018-03-02T03:07:44.106Z,11.23
2018-03-02T03:10:11.483Z,10.67
2018-03-02T03:12:39.104Z,11.53
2018-03-02T03:15:06.506Z,11.07
2018-03-02T03:17:33.908Z,11.67
2018-03-02T03:20:01.290Z,10.77
2018-03-02T03:22:28.717Z,11.47
2018-03-02T03:24:56.225Z,10.73
2018-03-02T03:27:23.622Z,10.73
2018-03-02T03:29:50.985Z,10.70
2018-03-02T03:32:18.327Z,10.67
2018-03-02T03:34:45.693Z,9.97
2018-03-02T03:37:13.037Z,11.07
2018-03-02T03:39:40.407Z,10.80
2018-03-02T03:42:07.906Z,10.80
2018-03-02T03:44:35.340Z,10.70
2018-03-02T03:47:02.728Z,10.47
2018-03-02T03:49:30.162Z,10.47
2018-03-02T03:51:57.502Z,10.77
2018-03-02T03:54:24.848Z,10.07
2018-03-02T03:56:52.184Z,10.43
2018-03-02T03:59:19.529Z,10.37
2018-03-02T04:01:46.916Z,10.40
2018-03-02T04:04:14.261Z,10.10
2018-03-02T04:06:41.643Z,10.17
2018-03-02T04:09:09.037Z,10.70
2018-03-02T04:11:36.422Z,10.67
2018-03-02T04:14:03.757Z,9.70
2018-03-02T04:16:31.211Z,11.07
2018-03-02T04:18:58.577Z,10.30
2018-03-02T04:21:25.927Z,10.70
2018-03-02T04:23:53.354Z,10.50
2018-03-02T04:26:20.759Z,9.87
2018-03-02T04:28:48.157Z,10.10
2018-03-02T04:31:15.559Z,9.17
2018-03-02T04:33:42.897Z,10.07
2018-03-02T04:36:10.298Z,9.80
2018-03-02T04:38:37.645Z,10.10
2018-03-02T04:41:04.982Z,9.87
2018-03-02T04:43:32.378Z,9.83
2018-03-02T04:45:59.709Z,10.17
2018-03-02T04:48:27.057Z,10.07
2018-03-02T04:50:54.487Z,10.37
2018-03-02T04:53:21.821Z,9.33
2018-03-02T04:55:49.177Z,10.00
2018-03-02T04:58:16.533Z,10.77
2018-03-02T05:00:43.878Z,9.83
2018-03-02T05:03:11.219Z,9.63
2018-03-02T05:05:38.681Z,9.30
2018-03-02T05:08:06.043Z,9.87
2018-03-02T05:10:33.428Z,9.40
2018-03-02T05:13:00.798Z,9.40
2018-03-02T05:15:28.160Z,10.20
2018-03-02T05:17:55.493Z,9.63
2018-03-02T05:20:22.829Z,10.73
2018-03-02T05:22:50.202Z,9.80
2018-03-02T05:25:17.534Z,9.97
2018-03-02T05:27:44.871Z,10.00
2018-03-02T05:30:12.229Z,9.90
2018-03-02T05:32:39.586Z,9.60
2018-03-02T05:35:06.925Z,9.43
2018-03-02T05:37:34.269Z,9.37
2018-03-02T05:40:01.690Z,9.67
2018-03-02T05:42:29.037Z,10.00
2018-03-02T05:44:56.432Z,10.27
2018-03-02T05:47:23.805Z,9.87
2018-03-02T05:49:51.145Z,9.30
2018-03-02T05:52:18.546Z,9.40
2018-03-02T05:54:45.902Z,9.60
2018-03-02T05:57:13.246Z,10.43
2018-03-02T05:59:40.649Z,10.33
2018-03-02T06:02:08.157Z,10.03
2018-03-02T06:04:35.522Z,10.50
2018-03-02T06:07:02.906Z,10.27
2018-03-02T06:09:31.326Z,10.20
2018-03-02T06:11:58.687Z,10.17
2018-03-02T06:14:26.130Z,10.67
2018-03-02T06:16:53.517Z,10.13
2018-03-02T06:19:20.873Z,11.17
2018-03-02T06:21:48.245Z,11.87
2018-03-02T06:24:15.656Z,10.93
2018-03-02T06:26:43.138Z,10.30
2018-03-02T06:29:10.587Z,11.27
2018-03-02T06:31:38.105Z,10.47
2018-03-02T06:34:05.938Z,10.73
2018-03-02T06:36:33.502Z,10.17
2018-03-02T06:39:00.862Z,10.50
2018-03-02T06:41:28.293Z,10.70
2018-03-02T06:43:55.629Z,10.37
2018-03-02T06:46:23.010Z,12.47
2018-03-02T06:48:50.400Z,14.57
2018-03-02T06:51:17.910Z,12.50
2018-03-02T06:53:45.300Z,15.60
2018-03-02T06:56:12.887Z,14.07
2018-03-02T06:58:40.310Z,20.87
2018-03-02T07:01:07.740Z,17.50
2018-03-02T07:03:35.103Z,15.20
2018-03-02T07:06:02.561Z,14.73
2018-03-02T07:08:29.992Z,14.60
2018-03-02T07:10:57.430Z,12.70
2018-03-02T07:13:24.993Z,11.77
2018-03-02T07:15:52.368Z,11.37
2018-03-02T07:18:19.732Z,11.67
2018-03-02T07:20:47.822Z,13.33
2018-03-02T07:23:15.218Z,15.07
2018-03-02T07:25:42.619Z,14.27
2018-03-02T07:28:10.044Z,11.60
2018-03-02T07:30:37.687Z,13.90
2018-03-02T07:33:06.059Z,12.13
2018-03-02T07:35:33.648Z,12.13
2018-03-02T07:38:01.077Z,12.53
2018-03-02T07:40:32.580Z,14.13
2018-03-02T07:43:00.047Z,13.03
2018-03-02T07:45:27.656Z,13.23
2018-03-02T07:47:56.173Z,12.60
2018-03-02T07:50:23.667Z,12.80
2018-03-02T07:52:51.758Z,13.17
2018-03-02T07:55:19.774Z,13.43
2018-03-02T07:57:48.038Z,14.63
2018-03-02T08:00:15.810Z,14.27
2018-03-02T08:02:43.573Z,14.33
2018-03-02T08:05:11.599Z,14.27
2018-03-02T08:07:39.194Z,14.17
2018-03-02T08:10:06.987Z,14.30
2018-03-02T08:12:34.669Z,14.90
2018-03-02T08:15:02.622Z,14.67
2018-03-02T08:17:30.088Z,15.13
2018-03-02T08:19:57.665Z,17.43
2018-03-02T08:22:25.507Z,15.03
2018-03-02T08:24:55.341Z,14.97
2018-03-02T08:27:24.079Z,15.23
2018-03-02T08:29:52.489Z,14.77
2018-03-02T08:32:20.170Z,14.33
2018-03-02T08:34:47.946Z,15.03
2018-03-02T08:37:15.359Z,15.27
2018-03-02T08:39:43.267Z,15.67
2018-03-02T08:42:10.840Z,15.50
2018-03-02T08:44:38.574Z,14.70
2018-03-02T08:47:06.471Z,15.17
2018-03-02T08:49:34.228Z,15.30
2018-03-02T08:52:02.050Z,15.47
2018-03-02T08:54:29.609Z,15.40
2018-03-02T08:56:57.396Z,15.43
2018-03-02T08:59:24.920Z,15.37
2018-03-02T09:01:52.865Z,14.80
2018-03-02T09:04:20.664Z,15.27
2018-03-02T09:06:48.792Z,14.53
2018-03-02T09:09:16.255Z,15.33
2018-03-02T09:11:43.677Z,14.60
2018-03-02T09:14:11.362Z,15.90
2018-03-02T09:16:39.102Z,14.50
2018-03-02T09:19:06.991Z,14.87
2018-03-02T09:21:34.494Z,15.20
2018-03-02T09:24:01.961Z,16.37
2018-03-02T09:26:29.355Z,15.37
2018-03-02T09:28:56.903Z,15.77
2018-03-02T09:31:24.764Z,15.57
2018-03-02T09:33:52.271Z,14.70
2018-03-02T09:36:19.706Z,15.27
2018-03-02T09:38:47.118Z,14.63
2018-03-02T09:41:14.515Z,14.90
2018-03-02T09:43:43.126Z,15.77
2018-03-02T09:46:10.932Z,14.57
2018-03-02T09:48:38.578Z,15.63
2018-03-02T09:51:06.391Z,14.70
2018-03-02T09:53:33.941Z,14.40
2018-03-02T09:56:02.060Z,14.43
2018-03-02T09:58:29.668Z,14.40
2018-03-02T10:00:57.222Z,14.43
2018-03-02T10:03:25.343Z,15.13
2018-03-02T10:05:53.544Z,15.37
2018-03-02T10:08:21.136Z,13.93
2018-03-02T10:10:48.595Z,14.43
2018-03-02T10:13:16.095Z,14.83
2018-03-02T10:15:43.622Z,15.33
2018-03-02T10:18:11.116Z,14.37
2018-03-02T10:20:39.373Z,16.97
2018-03-02T10:23:06.917Z,14.13
2018-03-02T10:25:34.402Z,14.83
2018-03-02T10:28:02.266Z,13.57
2018-03-02T10:30:30.144Z,13.93
2018-03-02T10:32:57.724Z,13.77
2018-03-02T10:35:25.362Z,14.80
2018-03-02T10:37:52.939Z,13.70
2018-03-02T10:40:20.961Z,14.43
2018-03-02T10:42:48.441Z,15.33
2018-03-02T10:45:15.871Z,15.47
2018-03-02T10:47:43.526Z,14.90
2018-03-02T10:50:11.330Z,15.47
2018-03-02T10:52:39.060Z,15.23
2018-03-02T10:55:06.617Z,15.23
2018-03-02T10:57:34.852Z,15.07
2018-03-02T11:00:02.567Z,16.10
2018-03-02T11:02:30.179Z,16.40
2018-03-02T11:04:57.753Z,15.63
2018-03-02T11:07:25.269Z,15.67
2018-03-02T11:09:52.725Z,16.53
2018-03-02T11:12:20.212Z,16.40
2018-03-02T11:14:47.681Z,16.90
2018-03-02T11:17:15.052Z,16.17
2018-03-02T11:19:42.486Z,16.97
2018-03-02T11:22:09.907Z,16.37
2018-03-02T11:24:37.303Z,17.10
2018-03-02T11:27:04.751Z,17.93
2018-03-02T11:29:32.132Z,17.27
2018-03-02T11:31:59.539Z,17.13
2018-03-02T11:34:27.037Z,17.83
2018-03-02T11:36:54.462Z,18.80
2018-03-02T11:39:21.861Z,17.80
2018-03-02T11:41:49.272Z,17.27
2018-03-02T11:44:16.699Z,17.00
2018-03-02T11:46:44.111Z,18.20
2018-03-02T11:49:11.482Z,17.43
2018-03-02T11:51:38.871Z,17.33
2018-03-02T11:54:06.305Z,16.70
2018-03-02T11:56:33.806Z,17.47
2018-03-02T11:59:01.955Z,16.33
2018-03-02T12:01:29.517Z,16.33
2018-03-02T12:03:57.156Z,16.43
2018-03-02T12:06:24.576Z,16.33
2018-03-02T12:08:52.912Z,16.27
2018-03-02T12:11:20.370Z,16.30
2018-03-02T12:13:47.746Z,17.57
2018-03-02T12:16:15.190Z,16.83
2018-03-02T12:18:42.579Z,16.17
2018-03-02T12:21:10.042Z,17.00
2018-03-02T12:23:37.551Z,16.77
2018-03-02T12:26:04.954Z,16.73
2018-03-02T12:28:32.424Z,15.80
2018-03-02T12:30:59.789Z,16.17
2018-03-02T12:33:27.165Z,15.50
2018-03-02T12:35:54.619Z,15.77
2018-03-02T12:38:22.126Z,17.43
2018-03-02T12:40:49.586Z,16.30
2018-03-02T12:43:17.120Z,17.40
2018-03-02T12:45:44.586Z,16.57
2018-03-02T12:48:12.024Z,15.53
2018-03-02T12:50:39.435Z,15.67
2018-03-02T12:53:06.840Z,15.37
2018-03-02T12:55:34.259Z,16.07
2018-03-02T12:58:01.682Z,16.23
2018-03-02T13:00:32.623Z,16.77
2018-03-02T13:03:01.297Z,16.33
2018-03-02T13:05:30.774Z,16.97
2018-03-02T13:07:59.064Z,16.50
2018-03-02T13:10:27.508Z,17.07
2018-03-02T13:12:56.642Z,17.13
2018-03-02T13:15:26.179Z,17.10
2018-03-02T13:17:55.558Z,18.20
2018-03-02T13:20:24.075Z,17.53
2018-03-02T13:22:56.516Z,16.50
2018-03-02T13:25:24.575Z,16.93
2018-03-02T13:28:05.537Z,15.90
2018-03-02T13:30:44.843Z,15.93
2018-03-02T13:33:20.463Z,16.30
2018-03-02T13:35:48.886Z,15.77
2018-03-02T13:38:16.717Z,17.50
2018-03-02T13:40:44.479Z,18.10
2018-03-02T13:43:19.337Z,16.40
2018-03-02T13:45:50.530Z,16.17
2018-03-02T13:48:18.070Z,15.87
2018-03-02T13:50:49.968Z,14.87
2018-03-02T13:53:17.435Z,16.60
2018-03-02T13:55:48.944Z,15.03
2018-03-02T13:58:18.721Z,15.03
2018-03-02T14:00:46.118Z,15.17
2018-03-02T14:03:13.632Z,15.80
2018-03-02T14:05:41.712Z,15.73
2018-03-02T14:08:09.426Z,16.77
2018-03-02T14:10:45.894Z,16.63
2018-03-02T14:13:15.559Z,17.07
2018-03-02T14:15:43.094Z,16.53
2018-03-02T14:18:11.368Z,17.60
2018-03-02T14:20:39.605Z,16.37
2018-03-02T14:23:08.230Z,17.43
2018-03-02T14:25:35.706Z,17.53
2018-03-02T14:28:09.151Z,16.53
2018-03-02T14:30:37.741Z,17.17
2018-03-02T14:33:07.909Z,16.63
2018-03-02T14:35:40.032Z,17.53
2018-03-02T14:40:53.849Z,17.20
2018-03-02T14:43:21.682Z,18.27
2018-03-02T14:45:49.191Z,19.23
2018-03-02T14:48:16.856Z,20.20
2018-03-02T14:50:45.277Z,20.57
2018-03-02T14:53:13.342Z,21.83
2018-03-02T14:55:41.182Z,22.23
2018-03-02T14:58:08.874Z,21.03
2018-03-02T15:00:37.132Z,21.23
2018-03-02T15:03:05.153Z,22.50
2018-03-02T15:05:32.768Z,21.60
2018-03-02T15:08:00.320Z,21.00
2018-03-02T15:10:27.699Z,21.47
2018-03-02T15:12:55.132Z,22.70
2018-03-02T15:15:22.853Z,23.13
2018-03-02T15:17:50.290Z,22.07
2018-03-02T15:20:17.792Z,24.03
2018-03-02T15:22:46.231Z,23.30
2018-03-02T15:25:13.685Z,22.60
2018-03-02T15:27:41.147Z,22.90
2018-03-02T15:30:16.242Z,21.70
2018-03-02T15:32:44.150Z,22.60
2018-03-02T15:35:15.408Z,22.40
2018-03-02T15:37:42.886Z,22.60
2018-03-02T15:40:11.471Z,21.87
2018-03-02T15:42:39.150Z,21.87
2018-03-02T15:45:06.697Z,21.00
2018-03-02T15:47:34.103Z,21.77
2018-03-02T15:52:39.197Z,21.20
2018-03-02T15:55:06.562Z,21.57
2018-03-02T15:57:34.089Z,23.60
2018-03-02T16:00:01.729Z,21.73
2018-03-02T16:02:29.186Z,21.87
2018-03-02T16:04:56.639Z,21.03
2018-03-02T16:07:23.993Z,20.73
2018-03-02T16:09:51.398Z,20.27
2018-03-02T16:12:18.838Z,20.90
2018-03-02T16:14:46.261Z,20.63
2018-03-02T16:17:13.874Z,21.07
2018-03-02T16:19:41.266Z,20.40
2018-03-02T16:22:08.841Z,19.60
2018-03-02T16:35:07.120Z,18.93
2018-03-02T16:40:19.280Z,19.63
2018-03-02T16:42:46.661Z,18.37
2018-03-02T16:45:14.025Z,19.17
2018-03-02T16:47:41.378Z,18.30
2018-03-02T17:01:47.105Z,18.37
2018-03-02T17:04:14.490Z,18.77
2018-03-02T17:06:41.886Z,18.30
2018-03-02T17:09:09.241Z,18.57
2018-03-02T17:11:36.620Z,18.37
2018-03-02T17:14:04.194Z,18.00
2018-03-02T17:16:31.587Z,18.30
2018-03-02T17:18:59.004Z,18.93
2018-03-02T17:21:26.461Z,18.40
2018-03-02T17:23:53.852Z,18.87
2018-03-02T17:26:21.210Z,18.30
2018-03-02T17:28:48.625Z,18.60
2018-03-02T17:31:16.374Z,19.53
2018-03-02T17:33:43.790Z,18.40
2018-03-02T17:36:11.191Z,19.53
2018-03-02T17:38:38.742Z,19.00
2018-03-02T17:41:06.141Z,18.73
2018-03-02T17:43:33.618Z,18.33
2018-03-02T17:46:00.964Z,18.90
2018-03-02T17:48:28.426Z,18.03
2018-03-02T17:50:55.803Z,18.63
2018-03-02T17:53:23.137Z,19.80
2018-03-02T17:55:50.481Z,18.83
2018-03-02T17:58:17.848Z,19.37
2018-03-02T18:00:45.194Z,18.57
2018-03-02T18:03:12.648Z,18.03
2018-03-02T18:05:40.036Z,19.17
2018-03-02T18:08:07.556Z,19.07
2018-03-02T18:10:42.190Z,19.20
2018-03-02T18:13:09.540Z,18.97
2018-03-02T18:15:36.874Z,18.77
2018-03-02T18:18:04.330Z,18.93
2018-03-02T18:32:11.515Z,19.60
2018-03-02T18:34:38.990Z,19.20
2018-03-02T18:37:06.373Z,19.87
2018-03-02T18:39:33.741Z,20.30
2018-03-02T18:42:01.107Z,19.90
2018-03-02T18:44:28.570Z,19.87
2018-03-02T18:46:55.951Z,19.83
2018-03-02T18:52:23.336Z,19.73
2018-03-02T18:54:50.751Z,19.33
2018-03-02T18:57:18.134Z,19.90
2018-03-02T18:59:45.565Z,19.67
2018-03-02T19:02:12.919Z,19.87
2018-03-02T19:04:40.309Z,19.27
2018-03-02T19:07:07.661Z,19.10
2018-03-02T19:09:35.048Z,19.70
2018-03-02T19:12:02.476Z,19.13
2018-03-02T19:14:29.891Z,19.67
2018-03-02T19:16:57.298Z,19.30
2018-03-02T19:19:24.680Z,19.77
2018-03-02T19:21:52.033Z,20.40
2018-03-02T19:24:19.497Z,19.97
2018-03-02T19:26:46.890Z,20.23
2018-03-02T19:29:21.573Z,20.63
2018-03-02T19:31:49.105Z,21.60
2018-03-02T19:34:16.564Z,23.87
2018-03-02T19:36:44.146Z,24.43
2018-03-02T19:59:02.748Z,26.27
2018-03-02T20:01:30.311Z,25.70
2018-03-02T20:03:57.808Z,26.67
2018-03-02T20:06:25.233Z,25.80
2018-03-02T20:08:52.649Z,25.67
2018-03-02T20:11:20.075Z,25.43
2018-03-02T20:13:47.486Z,25.47
2018-03-02T20:16:14.978Z,24.10
2018-03-02T20:18:42.449Z,23.43
2018-03-02T20:21:09.802Z,23.90
2018-03-02T20:23:37.278Z,22.87
2018-03-02T20:26:04.826Z,23.30
2018-03-02T20:28:32.192Z,22.97
2018-03-02T20:31:00.049Z,22.57
2018-03-02T20:33:27.445Z,22.63
2018-03-02T20:35:54.801Z,21.57
2018-03-02T20:38:22.168Z,22.10
2018-03-02T20:40:49.517Z,21.63
2018-03-02T20:43:17.037Z,21.47
2018-03-02T20:45:44.413Z,21.53
2018-03-02T20:48:11.771Z,20.73
2018-03-02T20:50:39.116Z,21.33
2018-03-02T20:53:06.568Z,21.37
2018-03-02T20:55:33.910Z,21.10
2018-03-02T20:58:01.253Z,23.47
2018-03-02T21:00:28.611Z,25.83
2018-03-02T21:02:55.958Z,26.77
2018-03-02T21:05:23.321Z,26.07
2018-03-02T21:07:50.666Z,27.27
2018-03-02T21:10:18.017Z,26.73
2018-03-02T21:12:45.398Z,26.80
2018-03-02T21:15:12.765Z,26.00
2018-03-02T21:17:40.191Z,25.87
2018-03-02T21:20:07.548Z,25.87
2018-03-02T21:22:34.928Z,25.87
2018-03-02T21:25:02.282Z,25.37
2018-03-02T21:27:29.697Z,24.57
2018-03-02T21:29:57.072Z,25.47
2018-03-02T21:32:24.433Z,25.73
2018-03-02T21:34:51.771Z,23.50
2018-03-02T21:37:19.110Z,23.40
2018-03-02T21:39:46.476Z,23.27
2018-03-02T21:42:13.820Z,22.50
2018-03-02T21:44:41.178Z,23.07
2018-03-02T21:47:08.712Z,23.00
2018-03-02T21:49:36.074Z,22.63
2018-03-02T21:52:03.652Z,23.03
2018-03-02T21:54:30.990Z,21.53
2018-03-02T21:56:58.329Z,22.37
2018-03-02T21:59:25.735Z,21.67
2018-03-02T22:01:53.070Z,21.23
2018-03-02T22:04:20.401Z,20.93
2018-03-02T22:06:47.745Z,21.83
2018-03-02T22:09:15.130Z,20.87
2018-03-02T22:11:42.467Z,20.73
2018-03-02T22:14:09.901Z,21.53
2018-03-02T22:16:37.351Z,21.03
2018-03-02T22:19:04.778Z,20.60
2018-03-02T22:21:32.126Z,20.20
2018-03-02T22:23:59.624Z,20.50
2018-03-02T22:26:27.030Z,19.90
2018-03-02T22:28:54.394Z,20.00
2018-03-02T22:31:22.618Z,19.90
2018-03-02T22:33:49.960Z,19.07
2018-03-02T22:36:17.385Z,18.90
2018-03-02T22:38:44.730Z,19.17
2018-03-02T22:41:12.086Z,19.20
2018-03-02T22:43:39.593Z,18.70
2018-03-02T22:46:07.071Z,18.17
2018-03-02T22:48:34.436Z,18.63
2018-03-02T22:51:01.871Z,18.60
2018-03-02T22:53:29.359Z,17.90
2018-03-02T22:55:57.008Z,18.93
2018-03-02T22:58:24.505Z,18.27
2018-03-02T23:00:51.930Z,18.17
2018-03-02T23:03:19.289Z,17.73
2018-03-02T23:05:46.665Z,16.70
2018-03-02T23:08:14.073Z,17.60
2018-03-02T23:10:41.470Z,17.10
2018-03-02T23:13:09.026Z,16.23
2018-03-02T23:15:36.382Z,17.03
2018-03-02T23:18:03.766Z,17.80
2018-03-02T23:20:31.158Z,17.13
2018-03-02T23:22:58.497Z,16.53
2018-03-02T23:25:25.897Z,15.80
2018-03-02T23:27:53.274Z,15.93
2018-03-02T23:30:20.682Z,17.00
2018-03-02T23:32:48.064Z,16.43
2018-03-02T23:35:15.404Z,15.07
2018-03-02T23:37:42.922Z,15.33
2018-03-02T23:40:10.449Z,15.67
2018-03-02T23:42:39.151Z,15.53
2018-03-02T23:45:06.532Z,14.97
2018-03-02T23:47:33.917Z,15.23
2018-03-02T23:50:01.322Z,16.03
2018-03-02T23:52:28.672Z,15.70
2018-03-02T23:54:56.269Z,15.20
2018-03-02T23:57:23.661Z,14.70
2018-03-02T23:59:51.082Z,14.70
